createdAt,value
2022-11-14T00:02:23.977Z,7.30
2022-11-14T00:06:25.063Z,7.10
2022-11-14T00:10:26.695Z,7.20
2022-11-14T00:14:28.042Z,7.10
2022-11-14T00:18:29.493Z,7.40
2022-11-14T00:22:31.005Z,7.30
2022-11-14T00:26:31.998Z,7.20
2022-11-14T00:30:33.128Z,6.90
2022-11-14T00:34:34.436Z,7.00
2022-11-14T00:38:35.694Z,6.80
2022-11-14T00:42:37.094Z,7.00
2022-11-14T00:46:38.068Z,6.90
2022-11-14T00:50:41.597Z,7.30
2022-11-14T00:54:42.634Z,7.00
2022-11-14T00:58:43.702Z,7.20
2022-11-14T01:02:44.612Z,7.30
2022-11-14T01:06:45.663Z,7.10
2022-11-14T01:10:50.249Z,7.10
2022-11-14T01:14:51.234Z,7.00
2022-11-14T01:18:52.319Z,7.20
2022-11-14T01:22:53.671Z,7.20
2022-11-14T01:26:56.365Z,7.30
2022-11-14T01:31:09.709Z,7.10
2022-11-14T01:35:10.829Z,7.10
2022-11-14T01:39:12.701Z,6.60
2022-11-14T01:43:20.697Z,6.90
2022-11-14T01:47:28.696Z,8.30
2022-11-14T01:51:36.285Z,8.60
2022-11-14T01:55:37.508Z,8.80
2022-11-14T01:59:42.240Z,8.60
2022-11-14T02:03:46.329Z,8.40
2022-11-14T02:07:47.775Z,7.10
2022-11-14T02:11:49.880Z,7.20
2022-11-14T02:15:51.751Z,7.20
2022-11-14T02:20:05.423Z,6.90
2022-11-14T02:24:11.463Z,7.20
2022-11-14T02:28:12.611Z,7.00
2022-11-14T02:32:13.724Z,6.80
2022-11-14T02:36:14.695Z,6.60
2022-11-14T02:40:16.199Z,6.90
2022-11-14T02:44:18.858Z,6.80
2022-11-14T02:48:20.000Z,6.70
2022-11-14T02:52:21.129Z,6.50
2022-11-14T02:56:22.284Z,6.50
2022-11-14T03:00:23.230Z,6.60
2022-11-14T03:04:24.370Z,6.60
2022-11-14T03:08:25.657Z,7.10
2022-11-14T03:12:27.044Z,7.40
2022-11-14T03:16:28.205Z,8.00
2022-11-14T03:20:29.901Z,8.40
2022-11-14T03:24:30.802Z,8.40
2022-11-14T03:28:32.430Z,7.40
2022-11-14T03:32:33.630Z,8.10
2022-11-14T03:36:34.604Z,7.40
2022-11-14T03:40:40.514Z,7.20
2022-11-14T03:44:42.581Z,7.00
2022-11-14T03:48:43.901Z,7.10
2022-11-14T03:52:50.272Z,6.50
2022-11-14T03:56:51.382Z,6.40
2022-11-14T04:00:54.498Z,6.00
2022-11-14T04:04:55.700Z,6.10
2022-11-14T04:08:56.801Z,5.80
2022-11-14T04:12:58.034Z,6.50
2022-11-14T04:16:59.366Z,6.50
2022-11-14T04:21:00.334Z,6.60
2022-11-14T04:25:01.593Z,7.40
2022-11-14T04:29:02.782Z,7.20
2022-11-14T04:33:05.080Z,7.10
2022-11-14T04:37:06.386Z,7.30
2022-11-14T04:41:07.475Z,6.60
2022-11-14T04:45:10.043Z,7.40
2022-11-14T04:49:11.108Z,7.00
2022-11-14T04:53:13.397Z,7.60
2022-11-14T04:57:16.037Z,6.40
2022-11-14T05:01:17.205Z,7.60
2022-11-14T05:05:18.347Z,6.60
2022-11-14T05:09:19.394Z,7.10
2022-11-14T05:13:20.494Z,7.70
2022-11-14T05:17:21.701Z,7.60
2022-11-14T05:21:22.598Z,7.60
2022-11-14T05:25:23.827Z,8.50
2022-11-14T05:29:24.866Z,8.80
2022-11-14T05:33:25.889Z,9.00
2022-11-14T05:37:26.872Z,9.00
2022-11-14T05:41:27.868Z,9.10
2022-11-14T05:45:30.349Z,8.70
2022-11-14T05:49:31.526Z,8.40
2022-11-14T05:53:33.448Z,8.40
2022-11-14T05:57:35.234Z,8.90
2022-11-14T06:01:36.501Z,8.50
2022-11-14T06:05:37.539Z,8.00
2022-11-14T06:09:38.582Z,7.30
2022-11-14T06:13:40.231Z,6.30
2022-11-14T06:17:41.201Z,7.00
2022-11-14T06:21:42.241Z,7.10
2022-11-14T06:25:43.348Z,6.40
2022-11-14T06:29:44.513Z,7.30
2022-11-14T06:33:46.005Z,7.40
2022-11-14T06:37:47.036Z,7.60
2022-11-14T06:41:49.702Z,7.70
2022-11-14T06:45:53.418Z,7.10
2022-11-14T06:49:55.029Z,6.80
2022-11-14T06:53:57.269Z,6.90
2022-11-14T06:57:58.300Z,7.60
2022-11-14T07:01:59.365Z,8.40
2022-11-14T07:06:01.484Z,8.80
2022-11-14T07:10:02.590Z,7.70
2022-11-14T07:14:05.206Z,7.80
2022-11-14T07:18:07.266Z,8.00
2022-11-14T07:22:08.815Z,6.60
2022-11-14T07:26:11.078Z,7.30
2022-11-14T07:30:13.186Z,6.90
2022-11-14T07:34:14.217Z,7.30
2022-11-14T07:38:15.617Z,7.20
2022-11-14T07:42:17.090Z,7.70
2022-11-14T07:46:18.381Z,7.20
2022-11-14T07:50:20.683Z,8.00
2022-11-14T07:54:21.808Z,8.00
2022-11-14T07:58:23.157Z,7.40
2022-11-14T08:02:26.551Z,7.20
2022-11-14T08:06:29.335Z,7.80
2022-11-14T08:10:33.793Z,7.90
2022-11-14T08:14:37.730Z,7.10
2022-11-14T08:18:39.041Z,7.90
2022-11-14T08:22:40.419Z,7.20
2022-11-14T08:26:41.592Z,7.40
2022-11-14T08:30:42.926Z,8.00
2022-11-14T08:34:45.084Z,8.60
2022-11-14T08:38:46.366Z,8.10
2022-11-14T08:42:47.702Z,8.70
2022-11-14T08:46:50.967Z,8.20
2022-11-14T08:50:52.538Z,7.80
2022-11-14T08:54:53.798Z,8.00
2022-11-14T08:58:55.068Z,8.40
2022-11-14T09:02:58.589Z,7.60
2022-11-14T09:07:00.216Z,8.00
2022-11-14T09:11:05.617Z,6.80
2022-11-14T09:15:07.595Z,6.90
2022-11-14T09:19:09.422Z,5.90
2022-11-14T09:23:12.082Z,6.60
2022-11-14T09:27:14.200Z,7.30
2022-11-14T09:31:15.601Z,7.40
2022-11-14T09:35:17.398Z,6.50
2022-11-14T09:39:19.268Z,7.40
2022-11-14T09:43:44.032Z,8.00
2022-11-14T09:47:52.368Z,8.00
2022-11-14T09:52:00.630Z,6.80
2022-11-14T09:56:02.001Z,8.10
2022-11-14T10:00:16.308Z,8.40
2022-11-14T10:04:31.072Z,6.70
2022-11-14T10:08:46.098Z,7.60
2022-11-14T10:13:13.945Z,7.10
2022-11-14T10:17:25.739Z,7.50
2022-11-14T10:21:46.237Z,8.70
2022-11-14T10:26:05.205Z,8.10
2022-11-14T10:30:12.768Z,7.50
2022-11-14T10:34:27.564Z,7.70
2022-11-14T10:38:35.146Z,7.60
2022-11-14T10:42:39.305Z,7.60
2022-11-14T10:46:44.337Z,9.00
2022-11-14T10:50:55.600Z,9.10
2022-11-14T10:55:07.220Z,9.70
2022-11-14T10:59:08.865Z,9.30
2022-11-14T11:03:10.220Z,8.50
2022-11-14T11:07:41.074Z,9.20
2022-11-14T11:11:45.914Z,10.10
2022-11-14T11:15:51.127Z,10.20
2022-11-14T11:19:52.488Z,10.60
2022-11-14T11:23:56.179Z,11.40
2022-11-14T11:28:13.620Z,12.00
2022-11-14T11:32:28.809Z,12.20
2022-11-14T11:36:34.224Z,11.00
2022-11-14T11:40:36.607Z,11.00
2022-11-14T11:44:41.566Z,11.10
2022-11-14T11:48:46.091Z,10.40
2022-11-14T11:53:12.049Z,10.10
2022-11-14T11:57:21.446Z,10.70
2022-11-14T12:01:20.097Z,10.90
2022-11-14T12:05:42.036Z,12.10
2022-11-14T12:10:09.299Z,12.60
2022-11-14T12:14:06.042Z,13.90
2022-11-14T12:18:15.258Z,13.10
2022-11-14T12:22:38.704Z,12.70
2022-11-14T12:27:03.839Z,13.20
2022-11-14T12:31:07.934Z,13.60
2022-11-14T12:35:14.237Z,13.50
2022-11-14T12:39:29.502Z,14.30
2022-11-14T12:43:42.322Z,14.00
2022-11-14T12:47:47.651Z,13.40
2022-11-14T12:51:52.436Z,13.90
2022-11-14T12:55:57.548Z,13.00
2022-11-14T13:00:02.907Z,13.40
2022-11-14T13:04:26.328Z,13.90
2022-11-14T13:08:31.189Z,13.10
2022-11-14T13:12:52.839Z,12.90
2022-11-14T13:17:16.694Z,11.90
2022-11-14T13:21:45.858Z,11.60
2022-11-14T13:25:48.139Z,13.00
2022-11-14T13:29:49.248Z,12.50
2022-11-14T13:33:59.515Z,12.10
2022-11-14T13:38:16.956Z,11.70
2022-11-14T13:42:31.213Z,11.70
2022-11-14T13:46:49.064Z,12.20
2022-11-14T13:50:55.637Z,12.00
2022-11-14T13:55:00.654Z,11.60
2022-11-14T13:59:06.327Z,10.80
2022-11-14T14:03:29.597Z,11.80
2022-11-14T14:07:35.294Z,10.70
2022-11-14T14:11:57.056Z,11.20
2022-11-14T14:16:25.486Z,10.40
2022-11-14T14:20:42.559Z,11.20
2022-11-14T14:24:47.986Z,12.00
2022-11-14T14:28:56.685Z,11.40
2022-11-14T14:33:17.474Z,11.30
2022-11-14T14:37:22.968Z,11.60
2022-11-14T14:41:28.479Z,11.90
2022-11-14T14:45:32.047Z,12.00
2022-11-14T14:49:38.764Z,12.00
2022-11-14T14:53:44.937Z,12.10
2022-11-14T14:57:46.969Z,11.90
2022-11-14T15:01:48.508Z,11.70
2022-11-14T15:06:03.596Z,12.30
2022-11-14T15:10:10.205Z,12.40
2022-11-14T15:14:21.329Z,12.10
2022-11-14T15:18:31.489Z,12.50
2022-11-14T15:22:34.717Z,11.90
2022-11-14T15:26:36.283Z,12.60
2022-11-14T15:30:38.595Z,11.40
2022-11-14T15:34:40.181Z,12.00
2022-11-14T15:39:01.253Z,12.00
2022-11-14T15:43:39.760Z,12.10
2022-11-14T15:47:41.707Z,11.80
2022-11-14T15:51:50.487Z,12.00
2022-11-14T15:55:54.101Z,12.40
2022-11-14T15:59:59.332Z,12.60
2022-11-14T16:04:02.231Z,12.90
2022-11-14T16:08:03.897Z,13.00
2022-11-14T16:12:06.425Z,13.70
2022-11-14T16:16:09.616Z,13.00
2022-11-14T16:20:17.906Z,13.00
2022-11-14T16:24:23.157Z,12.50
2022-11-14T16:28:24.794Z,12.40
2022-11-14T16:32:28.142Z,12.10
2022-11-14T16:36:29.657Z,11.70
2022-11-14T16:40:31.036Z,12.50
2022-11-14T16:44:37.285Z,12.10
2022-11-14T16:48:35.811Z,11.20
2022-11-14T16:52:42.422Z,11.40
2022-11-14T16:56:44.178Z,11.80
2022-11-14T17:00:46.382Z,11.40
2022-11-14T17:04:48.582Z,11.90
2022-11-14T17:08:57.848Z,11.60
2022-11-14T17:13:00.974Z,11.00
2022-11-14T17:17:03.205Z,11.40
2022-11-14T17:21:11.428Z,11.30
2022-11-14T17:25:15.096Z,10.40
2022-11-14T17:29:18.069Z,10.50
2022-11-14T17:33:21.133Z,10.20
2022-11-14T17:37:24.868Z,9.90
2022-11-14T17:41:28.175Z,10.00
2022-11-14T17:45:37.862Z,10.60
2022-11-14T17:49:40.889Z,10.30
2022-11-14T17:53:44.579Z,10.20
2022-11-14T17:57:49.551Z,10.50
2022-11-14T18:01:51.011Z,11.00
2022-11-14T18:05:57.230Z,10.80
2022-11-14T18:10:00.520Z,11.20
2022-11-14T18:14:03.693Z,11.20
2022-11-14T18:18:06.394Z,11.60
2022-11-14T18:22:10.105Z,11.40
2022-11-14T18:26:16.799Z,11.60
2022-11-14T18:30:40.465Z,11.30
2022-11-14T18:34:24.784Z,11.90
2022-11-14T18:38:33.293Z,11.90
2022-11-14T18:42:36.903Z,12.30
2022-11-14T18:46:40.850Z,12.20
2022-11-14T18:50:44.023Z,12.40
2022-11-14T18:54:47.800Z,12.20
2022-11-14T18:58:56.733Z,12.90
2022-11-14T19:03:05.990Z,12.70
2022-11-14T19:07:06.002Z,12.00
2022-11-14T19:11:33.155Z,11.80
2022-11-14T19:15:36.664Z,11.40
2022-11-14T19:19:40.407Z,11.50
2022-11-14T19:23:43.619Z,11.30
2022-11-14T19:27:52.609Z,12.00
2022-11-14T19:31:54.344Z,11.40
2022-11-14T19:35:57.620Z,10.80
2022-11-14T19:40:02.178Z,11.20
2022-11-14T19:44:05.804Z,10.80
2022-11-14T19:48:10.652Z,12.00
2022-11-14T19:52:14.165Z,12.10
2022-11-14T19:56:18.153Z,11.70
2022-11-14T20:00:20.127Z,12.60
2022-11-14T20:04:23.792Z,11.90
2022-11-14T20:08:30.147Z,11.80
2022-11-14T20:12:37.219Z,12.40
2022-11-14T20:16:39.360Z,12.00
2022-11-14T20:20:44.078Z,12.80
2022-11-14T20:24:48.509Z,12.50
2022-11-14T20:28:52.303Z,12.40
2022-11-14T20:32:54.094Z,12.50
2022-11-14T20:37:14.378Z,12.40
2022-11-14T20:41:03.322Z,11.60
2022-11-14T20:45:06.370Z,12.40
2022-11-14T20:49:10.817Z,12.80
2022-11-14T20:53:13.576Z,12.70
2022-11-14T20:57:16.079Z,12.90
2022-11-14T21:01:19.462Z,13.50
2022-11-14T21:05:22.787Z,13.10
2022-11-14T21:09:26.962Z,13.50
2022-11-14T21:13:47.874Z,12.90
2022-11-14T21:17:51.823Z,12.40
2022-11-14T21:21:54.385Z,12.80
2022-11-14T21:26:08.135Z,13.70
2022-11-14T21:30:10.255Z,13.20
2022-11-14T21:34:15.154Z,13.00
2022-11-14T21:38:16.524Z,13.00
2022-11-14T21:42:19.121Z,12.80
2022-11-14T21:46:22.205Z,13.50
2022-11-14T21:50:24.044Z,13.10
2022-11-14T21:54:26.573Z,13.30
2022-11-14T21:58:30.789Z,13.20
2022-11-14T22:02:41.107Z,13.30
2022-11-14T22:06:44.494Z,13.40
2022-11-14T22:10:46.229Z,13.60
2022-11-14T22:14:48.634Z,14.40
2022-11-14T22:18:54.310Z,14.40
2022-11-14T22:22:55.869Z,13.90
2022-11-14T22:26:58.695Z,14.00
2022-11-14T22:31:14.282Z,13.70
2022-11-14T22:35:16.978Z,14.50
2022-11-14T22:39:17.975Z,14.30
2022-11-14T22:43:20.999Z,15.00
2022-11-14T22:47:22.060Z,14.20
2022-11-14T22:51:27.447Z,12.70
2022-11-14T22:55:28.685Z,13.20
2022-11-14T22:59:29.768Z,13.70
2022-11-14T23:03:30.884Z,13.90
2022-11-14T23:07:32.316Z,13.80
2022-11-14T23:11:33.433Z,13.80
2022-11-14T23:15:35.394Z,13.80
2022-11-14T23:19:36.413Z,13.60
2022-11-14T23:23:37.671Z,13.30
2022-11-14T23:27:39.060Z,13.50
2022-11-14T23:31:40.353Z,13.70
2022-11-14T23:35:41.975Z,13.30
2022-11-14T23:39:42.986Z,13.40
2022-11-14T23:43:45.013Z,13.00
2022-11-14T23:47:46.222Z,13.20
2022-11-14T23:51:47.289Z,12.50
2022-11-14T23:55:57.028Z,13.00
2022-11-14T23:59:58.042Z,13.10
